createdAt,value
2023-08-14T00:01:05.006Z,22.50
2023-08-14T00:03:36.129Z,22.40
2023-08-14T00:06:07.132Z,22.30
2023-08-14T00:08:38.182Z,22.20
2023-08-14T00:11:09.549Z,22.10
2023-08-14T00:13:55.473Z,22.20
2023-08-14T00:16:27.478Z,22.10
2023-08-14T00:18:58.531Z,22.10
2023-08-14T00:21:29.539Z,22.10
2023-08-14T00:24:00.480Z,22.20
2023-08-14T00:26:31.358Z,22.20
2023-08-14T00:29:02.344Z,22.20
2023-08-14T00:31:33.317Z,22.20
2023-08-14T00:34:04.416Z,22.10
2023-08-14T00:36:35.338Z,22.10
2023-08-14T00:39:06.905Z,22.00
2023-08-14T00:41:38.764Z,22.00
2023-08-14T00:44:09.793Z,21.90
2023-08-14T00:46:41.151Z,21.90
2023-08-14T00:49:12.804Z,21.90
2023-08-14T00:51:44.005Z,21.90
2023-08-14T00:54:14.990Z,21.80
2023-08-14T00:56:46.444Z,21.80
2023-08-14T00:59:17.657Z,21.80
2023-08-14T01:01:48.703Z,21.80
2023-08-14T01:04:19.629Z,21.80
2023-08-14T01:06:50.619Z,21.80
2023-08-14T01:09:21.576Z,21.80
2023-08-14T01:12:16.495Z,21.80
2023-08-14T01:14:52.253Z,21.80
2023-08-14T01:17:30.965Z,21.90
2023-08-14T01:20:05.581Z,21.90
2023-08-14T01:22:56.169Z,22.00
2023-08-14T01:25:34.546Z,22.00
2023-08-14T01:28:06.995Z,22.00
2023-08-14T01:30:38.093Z,21.90
2023-08-14T01:33:09.176Z,21.90
2023-08-14T01:35:47.284Z,22.10
2023-08-14T01:38:41.149Z,22.20
2023-08-14T01:41:48.605Z,22.30
2023-08-14T01:44:23.022Z,22.40
2023-08-14T01:46:56.251Z,22.70
2023-08-14T01:49:29.503Z,22.70
2023-08-14T01:52:01.311Z,22.50
2023-08-14T01:54:32.235Z,22.40
2023-08-14T01:57:03.291Z,22.30
2023-08-14T01:59:44.665Z,22.30
2023-08-14T02:02:15.978Z,22.20
2023-08-14T02:04:47.210Z,22.20
2023-08-14T02:07:18.768Z,22.10
2023-08-14T02:09:49.706Z,22.20
2023-08-14T02:12:20.719Z,22.20
2023-08-14T02:14:51.679Z,22.20
2023-08-14T02:17:22.893Z,22.20
2023-08-14T02:19:54.410Z,22.30
2023-08-14T02:22:25.337Z,22.30
2023-08-14T02:24:56.346Z,22.20
2023-08-14T02:27:27.342Z,22.10
2023-08-14T02:29:58.338Z,22.10
2023-08-14T02:32:29.268Z,22.10
2023-08-14T02:35:00.212Z,22.10
2023-08-14T02:37:31.116Z,22.10
2023-08-14T02:40:02.376Z,22.00
2023-08-14T02:42:33.585Z,21.90
2023-08-14T02:45:05.390Z,21.90
2023-08-14T02:47:36.354Z,21.70
2023-08-14T02:50:07.778Z,21.60
2023-08-14T02:52:38.716Z,21.50
2023-08-14T02:55:09.773Z,21.50
2023-08-14T02:57:40.691Z,21.30
2023-08-14T03:00:12.236Z,21.20
2023-08-14T03:02:43.307Z,21.20
2023-08-14T03:05:14.528Z,21.20
2023-08-14T03:07:45.442Z,21.20
2023-08-14T03:10:16.367Z,21.30
2023-08-14T03:12:47.282Z,21.60
2023-08-14T03:15:18.381Z,21.60
2023-08-14T03:17:49.605Z,21.50
2023-08-14T03:20:20.564Z,21.30
2023-08-14T03:22:51.645Z,21.30
2023-08-14T03:25:23.585Z,21.30
2023-08-14T03:27:54.503Z,21.30
2023-08-14T03:30:25.414Z,21.20
2023-08-14T03:32:56.417Z,21.30
2023-08-14T03:35:27.371Z,21.20
2023-08-14T03:37:58.274Z,21.30
2023-08-14T03:40:30.867Z,21.10
2023-08-14T03:43:01.778Z,21.10
2023-08-14T03:45:32.728Z,21.10
2023-08-14T03:48:04.567Z,21.30
2023-08-14T03:50:35.559Z,21.20
2023-08-14T03:53:06.516Z,21.10
2023-08-14T03:55:37.407Z,21.10
2023-08-14T03:58:08.646Z,21.00
2023-08-14T04:00:39.699Z,21.00
2023-08-14T04:03:10.746Z,20.90
2023-08-14T04:05:42.093Z,21.00
2023-08-14T04:08:13.007Z,21.00
2023-08-14T04:10:43.936Z,21.00
2023-08-14T04:13:14.868Z,21.00
2023-08-14T04:15:45.802Z,21.00
2023-08-14T04:18:16.781Z,21.00
2023-08-14T04:20:47.728Z,20.80
2023-08-14T04:23:18.645Z,20.70
2023-08-14T04:25:49.660Z,20.80
2023-08-14T04:28:20.623Z,20.90
2023-08-14T04:30:51.650Z,21.00
2023-08-14T04:33:22.573Z,21.00
2023-08-14T04:35:53.504Z,20.90
2023-08-14T04:38:24.488Z,20.90
2023-08-14T04:40:55.391Z,20.90
2023-08-14T04:43:26.325Z,20.80
2023-08-14T04:45:57.257Z,20.70
2023-08-14T04:48:28.186Z,20.50
2023-08-14T04:50:59.117Z,20.50
2023-08-14T04:53:30.026Z,20.50
2023-08-14T04:56:00.941Z,20.50
2023-08-14T04:58:31.940Z,20.50
2023-08-14T05:01:02.959Z,20.60
2023-08-14T05:03:34.722Z,20.70
2023-08-14T05:06:05.683Z,20.90
2023-08-14T05:08:37.153Z,21.00
2023-08-14T05:11:08.179Z,21.10
2023-08-14T05:13:41.217Z,21.10
2023-08-14T05:16:12.300Z,21.10
2023-08-14T05:18:43.269Z,21.20
2023-08-14T05:21:14.264Z,21.30
2023-08-14T05:23:45.158Z,21.10
2023-08-14T05:26:16.067Z,21.00
2023-08-14T05:28:47.034Z,21.00
2023-08-14T05:31:18.072Z,21.00
2023-08-14T05:33:49.049Z,21.20
2023-08-14T05:36:20.018Z,21.20
2023-08-14T05:38:50.923Z,21.20
2023-08-14T05:41:23.004Z,21.20
2023-08-14T05:43:54.020Z,21.20
2023-08-14T05:46:25.222Z,21.10
2023-08-14T05:48:56.313Z,21.20
2023-08-14T05:51:27.214Z,21.30
2023-08-14T05:53:58.183Z,21.30
2023-08-14T05:56:29.095Z,21.30
2023-08-14T05:59:00.083Z,21.40
2023-08-14T06:01:31.038Z,21.30
2023-08-14T06:04:02.063Z,21.40
2023-08-14T06:06:32.994Z,21.40
2023-08-14T06:09:04.165Z,21.50
2023-08-14T06:11:36.825Z,21.50
2023-08-14T06:14:07.998Z,21.70
2023-08-14T06:16:39.060Z,21.50
2023-08-14T06:19:10.152Z,21.60
2023-08-14T06:21:41.114Z,21.70
2023-08-14T06:24:12.028Z,21.70
2023-08-14T06:26:42.949Z,21.70
2023-08-14T06:29:14.197Z,21.60
2023-08-14T06:31:45.115Z,21.60
2023-08-14T06:34:17.107Z,21.70
2023-08-14T06:36:48.626Z,21.70
2023-08-14T06:39:19.668Z,21.70
2023-08-14T06:41:50.623Z,21.70
2023-08-14T06:44:21.788Z,21.70
2023-08-14T06:46:52.835Z,21.80
2023-08-14T06:49:23.901Z,21.80
2023-08-14T06:51:55.570Z,21.90
2023-08-14T06:54:26.566Z,21.80
2023-08-14T06:56:57.562Z,21.80
2023-08-14T06:59:28.693Z,21.90
2023-08-14T07:01:59.793Z,21.80
2023-08-14T07:04:30.921Z,21.80
2023-08-14T07:07:01.849Z,21.90
2023-08-14T07:09:32.830Z,22.10
2023-08-14T07:12:04.058Z,22.30
2023-08-14T07:14:35.012Z,22.30
2023-08-14T07:17:05.974Z,22.40
2023-08-14T07:19:37.072Z,22.60
2023-08-14T07:22:08.040Z,22.50
2023-08-14T07:24:39.825Z,22.70
2023-08-14T07:27:11.240Z,22.80
2023-08-14T07:29:45.025Z,22.90
2023-08-14T07:32:16.527Z,22.90
2023-08-14T07:34:49.612Z,22.80
2023-08-14T07:37:20.613Z,23.10
2023-08-14T07:39:51.543Z,23.20
2023-08-14T07:42:22.557Z,23.30
2023-08-14T07:44:53.489Z,23.40
2023-08-14T07:47:24.631Z,23.30
2023-08-14T07:49:55.598Z,23.40
2023-08-14T07:52:28.765Z,23.40
2023-08-14T07:54:59.837Z,23.50
2023-08-14T07:57:30.901Z,23.50
2023-08-14T08:00:01.989Z,23.60
2023-08-14T08:02:32.914Z,23.70
2023-08-14T08:05:04.213Z,23.70
2023-08-14T08:07:35.130Z,23.70
2023-08-14T08:10:06.790Z,23.90
2023-08-14T08:12:37.817Z,23.90
2023-08-14T08:15:09.168Z,24.00
2023-08-14T08:17:40.422Z,24.10
2023-08-14T08:20:12.329Z,24.20
2023-08-14T08:22:43.313Z,24.20
2023-08-14T08:25:14.315Z,24.40
2023-08-14T08:27:45.297Z,24.40
2023-08-14T08:30:16.323Z,24.60
2023-08-14T08:32:47.269Z,24.60
2023-08-14T08:35:18.217Z,24.70
2023-08-14T08:37:49.214Z,24.70
2023-08-14T08:40:21.238Z,24.80
2023-08-14T08:42:52.838Z,24.90
2023-08-14T08:45:26.799Z,24.90
2023-08-14T08:48:00.980Z,25.00
2023-08-14T08:50:32.721Z,25.20
2023-08-14T08:53:04.218Z,25.20
2023-08-14T08:55:35.543Z,25.30
2023-08-14T08:58:08.092Z,25.30
2023-08-14T09:00:39.095Z,25.50
2023-08-14T09:03:11.078Z,25.50
2023-08-14T09:05:42.578Z,25.50
2023-08-14T09:08:13.906Z,25.60
2023-08-14T09:10:46.166Z,25.70
2023-08-14T09:15:54.738Z,25.90
2023-08-14T09:18:25.719Z,26.00
2023-08-14T09:20:59.029Z,26.00
2023-08-14T09:23:33.457Z,26.20
2023-08-14T09:26:04.451Z,26.30
2023-08-14T09:28:36.608Z,26.30
2023-08-14T09:31:13.399Z,26.40
2023-08-14T09:33:45.680Z,26.50
2023-08-14T09:36:18.159Z,26.60
2023-08-14T09:38:52.710Z,26.70
2023-08-14T09:41:25.831Z,26.70
2023-08-14T09:44:02.000Z,26.90
2023-08-14T09:46:33.365Z,26.90
2023-08-14T09:49:06.224Z,27.10
2023-08-14T09:51:37.169Z,27.10
2023-08-14T09:54:10.366Z,27.20
2023-08-14T09:56:41.366Z,27.30
2023-08-14T09:59:12.342Z,27.40
2023-08-14T10:01:43.370Z,27.50
2023-08-14T10:04:14.693Z,27.60
2023-08-14T10:06:46.464Z,27.60
2023-08-14T10:09:23.891Z,27.70
2023-08-14T10:11:58.859Z,27.90
2023-08-14T10:14:31.422Z,28.00
2023-08-14T10:17:03.801Z,28.00
2023-08-14T10:19:35.859Z,28.10
2023-08-14T10:22:08.418Z,28.20
2023-08-14T10:24:42.087Z,28.20
2023-08-14T10:27:13.316Z,28.40
2023-08-14T10:29:48.326Z,28.50
2023-08-14T10:32:20.537Z,28.60
2023-08-14T10:34:51.881Z,28.70
2023-08-14T10:37:28.964Z,28.80
2023-08-14T10:40:25.412Z,28.80
2023-08-14T10:43:01.896Z,28.90
2023-08-14T10:45:32.849Z,29.00
2023-08-14T10:48:10.892Z,29.20
2023-08-14T10:50:41.910Z,29.50
2023-08-14T10:53:12.912Z,29.60
2023-08-14T10:55:46.424Z,29.80
2023-08-14T10:58:30.167Z,29.70
2023-08-14T11:01:04.175Z,29.80
2023-08-14T11:04:05.356Z,30.00
2023-08-14T11:06:58.097Z,30.00
2023-08-14T11:09:39.834Z,30.00
2023-08-14T11:12:11.299Z,30.10
2023-08-14T11:14:43.260Z,30.10
2023-08-14T11:17:14.208Z,30.10
2023-08-14T11:19:45.408Z,30.10
2023-08-14T11:22:16.657Z,30.10
2023-08-14T11:24:47.933Z,30.20
2023-08-14T11:27:19.073Z,30.20
2023-08-14T11:29:53.648Z,30.20
2023-08-14T11:32:25.942Z,30.30
2023-08-14T11:34:57.381Z,30.40
2023-08-14T11:37:28.457Z,30.30
2023-08-14T11:40:08.800Z,30.30
2023-08-14T11:42:41.076Z,30.40
2023-08-14T11:45:12.423Z,30.40
2023-08-14T11:47:51.472Z,30.40
2023-08-14T11:50:22.495Z,30.70
2023-08-14T11:52:54.246Z,31.10
2023-08-14T11:55:25.340Z,31.60
2023-08-14T11:57:57.242Z,31.90
2023-08-14T12:00:33.632Z,31.90
2023-08-14T12:03:08.271Z,31.80
2023-08-14T12:05:40.323Z,31.90
2023-08-14T12:08:12.917Z,31.90
2023-08-14T12:10:44.639Z,31.90
2023-08-14T12:13:21.448Z,32.10
2023-08-14T12:15:53.402Z,32.10
2023-08-14T12:18:25.544Z,32.00
2023-08-14T12:20:56.654Z,32.00
2023-08-14T12:23:27.635Z,32.00
2023-08-14T12:25:58.697Z,32.00
2023-08-14T12:28:29.759Z,32.00
2023-08-14T12:31:00.705Z,31.90
2023-08-14T12:33:31.657Z,31.80
2023-08-14T12:36:02.950Z,31.80
2023-08-14T12:38:33.945Z,31.70
2023-08-14T12:41:05.946Z,31.60
2023-08-14T12:43:40.553Z,31.40
2023-08-14T12:46:12.187Z,31.00
2023-08-14T12:48:43.235Z,29.80
2023-08-14T12:51:14.152Z,28.80
2023-08-14T12:53:45.186Z,28.30
2023-08-14T12:56:19.075Z,28.10
2023-08-14T12:58:50.453Z,28.00
2023-08-14T13:01:24.216Z,27.90
2023-08-14T13:03:59.777Z,27.80
2023-08-14T13:06:32.971Z,27.90
2023-08-14T13:09:04.473Z,27.90
2023-08-14T13:11:35.823Z,28.10
2023-08-14T13:14:06.865Z,28.30
2023-08-14T13:16:37.935Z,28.50
2023-08-14T13:19:09.004Z,28.40
2023-08-14T13:21:39.934Z,28.50
2023-08-14T13:24:11.398Z,28.50
2023-08-14T13:26:42.406Z,28.80
2023-08-14T13:29:13.381Z,29.00
2023-08-14T13:31:45.476Z,29.20
2023-08-14T13:34:16.474Z,29.40
2023-08-14T13:36:47.421Z,29.70
2023-08-14T13:39:18.322Z,29.90
2023-08-14T13:41:49.291Z,29.90
2023-08-14T13:44:20.395Z,30.10
2023-08-14T13:46:51.415Z,30.30
2023-08-14T13:49:22.426Z,30.80
2023-08-14T13:51:53.358Z,30.90
2023-08-14T13:54:24.307Z,30.80
2023-08-14T13:56:55.447Z,30.70
2023-08-14T13:59:26.544Z,30.50
2023-08-14T14:01:57.578Z,30.50
2023-08-14T14:04:28.577Z,30.60
2023-08-14T14:06:59.583Z,30.50
2023-08-14T14:09:30.704Z,30.40
2023-08-14T14:12:01.773Z,30.30
2023-08-14T14:14:33.151Z,30.40
2023-08-14T14:17:05.109Z,30.40
2023-08-14T14:19:36.171Z,30.40
2023-08-14T14:22:07.690Z,30.60
2023-08-14T14:24:39.149Z,30.80
2023-08-14T14:27:10.149Z,31.00
2023-08-14T14:29:41.185Z,31.50
2023-08-14T14:32:12.172Z,31.70
2023-08-14T14:34:43.243Z,31.80
2023-08-14T14:37:14.236Z,32.00
2023-08-14T14:39:45.229Z,32.00
2023-08-14T14:42:16.209Z,32.00
2023-08-14T14:44:48.108Z,31.80
2023-08-14T14:47:19.912Z,31.70
2023-08-14T14:49:51.210Z,31.60
2023-08-14T14:52:22.094Z,31.20
2023-08-14T14:54:53.024Z,30.90
2023-08-14T14:57:23.929Z,30.70
2023-08-14T14:59:54.915Z,30.60
2023-08-14T15:02:29.866Z,30.50
2023-08-14T15:05:05.830Z,30.50
2023-08-14T15:07:37.970Z,30.60
2023-08-14T15:10:09.002Z,30.90
2023-08-14T15:12:39.989Z,31.30
2023-08-14T15:15:11.032Z,31.70
2023-08-14T15:17:44.388Z,32.30
2023-08-14T15:20:16.864Z,32.30
2023-08-14T15:22:47.915Z,32.40
2023-08-14T15:25:19.052Z,32.60
2023-08-14T15:27:50.242Z,32.90
2023-08-14T15:30:21.401Z,33.00
2023-08-14T15:32:52.955Z,33.00
2023-08-14T15:35:23.927Z,33.40
2023-08-14T15:37:54.908Z,33.60
2023-08-14T15:40:25.935Z,33.70
2023-08-14T15:43:00.426Z,33.70
2023-08-14T15:45:31.847Z,33.80
2023-08-14T15:48:02.982Z,33.90
2023-08-14T15:50:33.962Z,33.80
2023-08-14T15:53:05.120Z,33.50
2023-08-14T15:55:36.060Z,33.80
2023-08-14T15:58:07.352Z,34.00
2023-08-14T16:00:38.386Z,34.30
2023-08-14T16:03:09.414Z,34.40
2023-08-14T16:05:40.457Z,34.30
2023-08-14T16:08:11.422Z,34.30
2023-08-14T16:10:42.344Z,34.60
2023-08-14T16:13:13.335Z,34.90
2023-08-14T16:15:44.595Z,35.00
2023-08-14T16:18:15.616Z,35.10
2023-08-14T16:20:46.613Z,35.00
2023-08-14T16:23:17.692Z,34.90
2023-08-14T16:25:48.592Z,34.60
2023-08-14T16:28:19.553Z,34.30
2023-08-14T16:30:50.872Z,34.50
2023-08-14T16:33:21.871Z,34.50
2023-08-14T16:35:53.206Z,34.40
2023-08-14T16:38:24.158Z,34.50
2023-08-14T16:40:55.166Z,34.50
2023-08-14T16:43:26.102Z,34.50
2023-08-14T16:45:57.109Z,34.60
2023-08-14T16:48:28.027Z,34.90
2023-08-14T16:51:02.196Z,34.90
2023-08-14T16:53:33.162Z,35.00
2023-08-14T16:56:04.248Z,35.20
2023-08-14T16:58:35.177Z,35.10
2023-08-14T17:01:06.285Z,34.70
2023-08-14T17:03:37.305Z,34.50
2023-08-14T17:06:08.334Z,34.40
2023-08-14T17:08:39.433Z,34.20
2023-08-14T17:11:10.421Z,34.20
2023-08-14T17:13:41.451Z,34.20
2023-08-14T17:16:12.657Z,34.10
2023-08-14T17:18:43.760Z,33.80
2023-08-14T17:21:14.994Z,33.80
2023-08-14T17:23:46.038Z,33.60
2023-08-14T17:26:16.961Z,33.40
2023-08-14T17:28:47.906Z,33.10
2023-08-14T17:31:18.888Z,32.70
2023-08-14T17:33:49.815Z,32.40
2023-08-14T17:36:20.778Z,32.20
2023-08-14T17:38:51.727Z,31.90
2023-08-14T17:41:22.780Z,31.70
2023-08-14T17:43:53.743Z,31.50
2023-08-14T17:46:24.796Z,31.30
2023-08-14T17:48:55.863Z,31.10
2023-08-14T17:51:26.826Z,30.80
2023-08-14T17:54:01.040Z,30.70
2023-08-14T17:56:32.099Z,30.60
2023-08-14T17:59:03.430Z,30.40
2023-08-14T18:01:34.466Z,30.30
2023-08-14T18:04:05.915Z,30.20
2023-08-14T18:06:36.870Z,30.10
2023-08-14T18:09:07.954Z,30.10
2023-08-14T18:11:38.901Z,29.90
2023-08-14T18:14:09.909Z,29.90
2023-08-14T18:16:40.963Z,29.70
2023-08-14T18:19:28.765Z,29.60
2023-08-14T18:22:00.732Z,29.50
2023-08-14T18:24:31.729Z,29.50
2023-08-14T18:27:03.052Z,29.40
2023-08-14T18:29:34.005Z,29.30
2023-08-14T18:32:07.936Z,29.10
2023-08-14T18:34:40.445Z,29.00
2023-08-14T18:37:11.531Z,28.90
2023-08-14T18:39:42.516Z,28.80
2023-08-14T18:42:13.492Z,28.80
2023-08-14T18:44:44.486Z,28.60
2023-08-14T18:47:15.432Z,28.60
2023-08-14T18:49:47.020Z,28.50
2023-08-14T18:52:18.188Z,28.50
2023-08-14T18:54:49.181Z,28.30
2023-08-14T18:57:20.375Z,28.30
2023-08-14T18:59:51.670Z,28.20
2023-08-14T19:02:22.659Z,28.10
2023-08-14T19:04:53.927Z,28.00
2023-08-14T19:07:24.925Z,27.90
2023-08-14T19:09:55.939Z,27.90
2023-08-14T19:12:26.917Z,27.80
2023-08-14T19:14:57.860Z,27.80
2023-08-14T19:17:28.855Z,27.70
2023-08-14T19:20:00.453Z,27.70
2023-08-14T19:22:31.500Z,27.60
2023-08-14T19:25:02.699Z,27.50
2023-08-14T19:27:33.686Z,27.50
2023-08-14T19:30:06.473Z,27.40
2023-08-14T19:32:37.406Z,27.30
2023-08-14T19:35:08.936Z,27.30
2023-08-14T19:37:39.978Z,27.20
2023-08-14T19:40:11.623Z,27.20
2023-08-14T19:42:43.199Z,27.10
2023-08-14T19:45:14.216Z,27.00
2023-08-14T19:47:45.361Z,27.00
2023-08-14T19:50:16.413Z,26.90
2023-08-14T19:52:47.402Z,26.80
2023-08-14T19:55:18.382Z,26.70
2023-08-14T19:57:49.421Z,26.50
2023-08-14T20:00:20.522Z,26.40
2023-08-14T20:02:53.923Z,26.30
2023-08-14T20:05:25.136Z,26.30
2023-08-14T20:07:57.013Z,26.20
2023-08-14T20:10:27.983Z,26.10
2023-08-14T20:12:59.010Z,26.10
2023-08-14T20:15:30.165Z,26.00
2023-08-14T20:18:01.185Z,26.00
2023-08-14T20:20:32.187Z,25.90
2023-08-14T20:23:03.164Z,25.90
2023-08-14T20:25:35.223Z,25.80
2023-08-14T20:28:07.102Z,25.80
2023-08-14T20:30:43.909Z,25.70
2023-08-14T20:33:15.999Z,25.70
2023-08-14T20:35:48.025Z,25.70
2023-08-14T20:38:19.045Z,25.60
2023-08-14T20:40:55.362Z,25.60
2023-08-14T20:43:31.766Z,25.60
2023-08-14T20:46:02.719Z,25.50
2023-08-14T20:48:33.703Z,25.50
2023-08-14T20:51:04.859Z,25.40
2023-08-14T20:53:35.932Z,25.30
2023-08-14T20:56:06.901Z,25.30
2023-08-14T20:58:37.879Z,25.20
2023-08-14T21:01:08.848Z,25.20
2023-08-14T21:03:39.878Z,25.20
2023-08-14T21:06:10.901Z,25.20
2023-08-14T21:08:41.858Z,25.20
2023-08-14T21:11:15.156Z,25.20
2023-08-14T21:13:46.082Z,25.10
2023-08-14T21:16:17.140Z,25.10
2023-08-14T21:18:49.415Z,25.10
2023-08-14T21:21:22.261Z,25.00
2023-08-14T21:23:53.203Z,24.90
2023-08-14T21:26:24.324Z,25.00
2023-08-14T21:28:55.582Z,25.00
2023-08-14T21:31:26.516Z,25.00
2023-08-14T21:33:57.470Z,24.90
2023-08-14T21:36:28.388Z,24.90
2023-08-14T21:38:59.288Z,25.00
2023-08-14T21:41:30.209Z,25.00
2023-08-14T21:44:01.164Z,24.90
2023-08-14T21:46:34.258Z,24.90
2023-08-14T21:49:06.313Z,24.90
2023-08-14T21:51:37.280Z,24.80
2023-08-14T21:54:12.011Z,24.80
2023-08-14T21:56:43.007Z,24.80
2023-08-14T21:59:14.050Z,24.90
2023-08-14T22:01:45.698Z,24.90
2023-08-14T22:04:16.785Z,24.80
2023-08-14T22:06:47.752Z,24.80
2023-08-14T22:09:21.845Z,24.70
2023-08-14T22:11:52.797Z,24.70
2023-08-14T22:14:23.866Z,24.80
2023-08-14T22:16:54.997Z,24.70
2023-08-14T22:19:25.957Z,24.80
2023-08-14T22:21:56.914Z,24.80
2023-08-14T22:24:40.209Z,24.80
2023-08-14T22:27:12.489Z,24.80
2023-08-14T22:29:43.439Z,24.70
2023-08-14T22:32:14.330Z,24.80
2023-08-14T22:34:45.253Z,24.70
2023-08-14T22:37:16.165Z,24.70
2023-08-14T22:39:47.153Z,24.70
2023-08-14T22:42:18.181Z,24.80
2023-08-14T22:44:50.373Z,24.70
2023-08-14T22:47:21.609Z,24.70
2023-08-14T22:49:52.791Z,24.70
2023-08-14T22:52:23.761Z,24.70
2023-08-14T22:54:54.660Z,24.70
2023-08-14T22:57:25.623Z,24.70
2023-08-14T22:59:56.568Z,24.60
2023-08-14T23:02:27.540Z,24.60
2023-08-14T23:04:58.504Z,24.50
2023-08-14T23:07:29.415Z,24.40
2023-08-14T23:10:00.335Z,24.40
2023-08-14T23:12:31.255Z,24.40
2023-08-14T23:15:02.144Z,24.30
2023-08-14T23:17:35.116Z,24.40
2023-08-14T23:20:07.148Z,24.40
2023-08-14T23:22:38.350Z,24.40
2023-08-14T23:25:10.164Z,24.50
2023-08-14T23:27:41.309Z,24.50
2023-08-14T23:30:12.892Z,24.50
2023-08-14T23:32:43.904Z,24.50
2023-08-14T23:35:14.858Z,24.40
2023-08-14T23:37:45.739Z,24.30
2023-08-14T23:40:16.903Z,24.30
2023-08-14T23:42:48.035Z,24.40
2023-08-14T23:45:18.966Z,24.40
2023-08-14T23:47:49.976Z,24.30
2023-08-14T23:50:22.871Z,24.20
2023-08-14T23:52:53.780Z,24.20
2023-08-14T23:55:24.739Z,24.00
2023-08-14T23:57:55.799Z,24.00
